Search for airport 
image banner adimage banner adimage banner ad
image banner ad

2CL3 - Longbell Ranch

Located in Tennant, United States

ICAO - 2CL3, IATA -

Data provided by Airmate  

General information

Coordinates: N41°38'32" W121°53'25"
Elevation is 4607 feet MSL.
Magnetic variation is 17° East
View others Airports in California

Operational data

Special qualification required
Current time UTC:
Current local time:
Weather at : KSIY - Siskiyou County ( 50 km )
METAR: KSIY 221253Z AUTO 14003KT 10SM CLR 21/05 A2992 RMK AO2 SLP110 T02060050
View NOTAMs / SUP AIP / TFR affecting this airport [VIEW]
Communications frequencies: [VIEW]

Runways:

RWY identifierQFULength (ft)Width (ft)SurfaceLDA (ft)
15500060GRASS
33500060GRASS

Airport contact information

Address: Tennant United States

Satellite view of 2CL3